Cotes De La Manche — FQBE — position and weather

sailwx.info

Track history (hours):
 
Tides and Currents Weather Stations Pressure Air Temp Water Temp Dewpoint Dewpoint Depression Visibility Wind Speed Wind Dir Waves Ship Positions

Cotes De La Manche

Last reported at 2015-Apr-28 04:33 UTC. Time now 2015-Apr-28 05:18 UTC.
Position N 49°27' E 000°25'.

Length 25 m; draft 3.7 m.

Type: Other ship. MMSI: 227091000.

Date/timePositionNaut miles runAvg speedWind from/ knotsBaromVisibWave heightAir tempDewpointWater temp
2015-Apr-28 04:33N 49°27' E 000°25'4 3.4
2015-Apr-28 03:32N 49°26' E 000°19'0 0.0
2015-Apr-28 02:29N 49°26' E 000°19'0 0.1
2015-Apr-28 01:32N 49°26' E 000°19'0 0.0
2015-Apr-28 00:32N 49°26' E 000°19'0 0.0
2015-Apr-27 23:32N 49°26' E 000°19'0 0.0
2015-Apr-27 22:32N 49°26' E 000°19'0 0.0
2015-Apr-27 21:32N 49°26' E 000°19'0 0.0
2015-Apr-27 20:32N 49°26' E 000°19'0 0.0
2015-Apr-27 19:32N 49°26' E 000°19'0 0.0
2015-Apr-27 18:32N 49°26' E 000°19'0 0.0
2015-Apr-27 17:32N 49°26' E 000°19'0 0.0
2015-Apr-27 16:32N 49°26' E 000°19'0 0.0
2015-Apr-27 15:32N 49°26' E 000°19'0 0.0
2015-Apr-27 14:32N 49°26' E 000°19'0 0.0
2015-Apr-27 13:32N 49°26' E 000°19'0 0.0
2015-Apr-27 12:32N 49°26' E 000°19'0 0.0
2015-Apr-27 11:32N 49°26' E 000°19'0 0.0
2015-Apr-27 10:32N 49°26' E 000°19'0 0.0
2015-Apr-27 09:32N 49°26' E 000°19'0 0.0
2015-Apr-27 08:32N 49°26' E 000°19'0 0.0
2015-Apr-27 07:32N 49°26' E 000°19'0 0.0
2015-Apr-27 06:32N 49°26' E 000°19'0 0.0
2015-Apr-27 05:32N 49°26' E 000°19'0 0.0
2015-Apr-27 04:29N 49°26' E 000°19'0 0.0
2015-Apr-27 03:32N 49°26' E 000°19'0 0.0
2015-Apr-27 02:32N 49°26' E 000°19'0 0.0
2015-Apr-27 01:32N 49°26' E 000°19'0 0.0
2015-Apr-27 00:32N 49°26' E 000°19'0 0.0
2015-Apr-26 23:32N 49°26' E 000°19'0 0.0
2015-Apr-26 22:32N 49°26' E 000°19'0 0.0
2015-Apr-26 21:32N 49°26' E 000°19'0 0.0
2015-Apr-26 20:32N 49°26' E 000°19'0 0.0
2015-Apr-26 19:32N 49°26' E 000°19'0 0.0
2015-Apr-26 18:29N 49°26' E 000°19'4 3.7
2015-Apr-26 17:32N 49°26' E 000°14'0 0.0
2015-Apr-26 16:32N 49°26' E 000°14'0 0.0
2015-Apr-26 15:32N 49°26' E 000°14'0 0.0
2015-Apr-26 14:32N 49°26' E 000°14'0 0.0
2015-Apr-26 13:32N 49°26' E 000°14'0 0.0
2015-Apr-26 12:32N 49°26' E 000°14'0 0.1
2015-Apr-26 11:32N 49°26' E 000°14'0 0.0
2015-Apr-26 10:32N 49°26' E 000°14'0 0.0
2015-Apr-26 09:32N 49°26' E 000°14'0 0.0
2015-Apr-26 08:32N 49°26' E 000°14'0 0.0
2015-Apr-26 07:32N 49°26' E 000°14'0 0.0
2015-Apr-26 06:33N 49°26' E 000°14'7 7.5
2015-Apr-26 05:33N 49°27' E 000°02'4 3.6
2015-Apr-26 04:33N 49°24' E 000°00'0 0.0
2015-Apr-26 03:33N 49°24' E 000°00'0 0.0
2015-Apr-26 02:33N 49°24' E 000°00'0 0.0
2015-Apr-26 01:33N 49°24' E 000°00'0 0.0
2015-Apr-26 00:33N 49°24' E 000°00'0 0.0
2015-Apr-25 23:33N 49°24' E 000°00'0 0.0
2015-Apr-25 22:33N 49°24' E 000°00'0 0.0
2015-Apr-25 21:33N 49°24' E 000°00'0 0.0
2015-Apr-25 20:33N 49°24' E 000°00'0 0.0
2015-Apr-25 19:33N 49°24' E 000°00'6 5.9
2015-Apr-25 18:33N 49°29' E 000°02'4 3.7
2015-Apr-25 17:33N 49°29' E 000°07'0 0.0
2015-Apr-25 16:33N 49°29' E 000°07'0 0.0
2015-Apr-25 15:33N 49°29' E 000°07'0 0.0
2015-Apr-25 14:33N 49°29' E 000°07'0 0.0
2015-Apr-25 13:33N 49°29' E 000°07'1 0.6
2015-Apr-25 12:33N 49°29' E 000°07'5 5.3
2015-Apr-25 11:33N 49°29' W 000°02'0 0.0
2015-Apr-25 10:33N 49°29' W 000°02'0 0.0
2015-Apr-25 09:33N 49°29' W 000°02'0 0.0
2015-Apr-25 08:33N 49°29' W 000°02'0 0.0
2015-Apr-25 07:33N 49°29' W 000°02'0 0.0
2015-Apr-25 06:33N 49°29' W 000°02'0 0.0
2015-Apr-25 05:33N 49°29' W 000°02'0 0.0
2015-Apr-25 04:33N 49°29' W 000°02'0 0.0
2015-Apr-25 03:33N 49°29' W 000°02'0 0.0
2015-Apr-25 02:33N 49°29' W 000°02'4 4.5
2015-Apr-25 01:33N 49°30' W 000°08'1010.0
2015-Apr-25 00:33N 49°33' W 000°23'84 2.5
2015-Apr-23 14:22N 48°39' W 002°01'0 0.0
2015-Apr-23 13:07N 48°39' W 002°01'0 0.0
2015-Apr-23 12:31N 48°39' W 002°01'0 0.0
2015-Apr-23 08:10N 48°39' W 002°01'  
2015-Apr-18 09:18N 48°23' W 004°48'4 6.0
2015-Apr-18 08:33N 48°18' W 004°48'9 9.3
2015-Apr-18 07:33N 48°09' W 004°47'  
Track history (hours):
 
Tides and Currents Weather Stations Pressure Air Temp Water Temp Dewpoint Dewpoint Depression Visibility Wind Speed Wind Dir Waves Ship Positions

Cotes De La Manche

Last reported at 2015-Apr-28 04:33 UTC. Time now 2015-Apr-28 05:18 UTC.
Position N 49°27' E 000°25'.

Length 25 m; draft 3.7 m.

Type: Other ship. MMSI: 227091000.

Date/timePositionNaut miles runAvg speedWind from/ knotsBaromVisibWave heightAir tempDewpointWater temp
2015-Apr-28 04:33N 49°27' E 000°25'4 3.4
2015-Apr-28 03:32N 49°26' E 000°19'0 0.0
2015-Apr-28 02:29N 49°26' E 000°19'0 0.1
2015-Apr-28 01:32N 49°26' E 000°19'0 0.0
2015-Apr-28 00:32N 49°26' E 000°19'0 0.0
2015-Apr-27 23:32N 49°26' E 000°19'0 0.0
2015-Apr-27 22:32N 49°26' E 000°19'0 0.0
2015-Apr-27 21:32N 49°26' E 000°19'0 0.0
2015-Apr-27 20:32N 49°26' E 000°19'0 0.0
2015-Apr-27 19:32N 49°26' E 000°19'0 0.0
2015-Apr-27 18:32N 49°26' E 000°19'0 0.0
2015-Apr-27 17:32N 49°26' E 000°19'0 0.0
2015-Apr-27 16:32N 49°26' E 000°19'0 0.0
2015-Apr-27 15:32N 49°26' E 000°19'0 0.0
2015-Apr-27 14:32N 49°26' E 000°19'0 0.0
2015-Apr-27 13:32N 49°26' E 000°19'0 0.0
2015-Apr-27 12:32N 49°26' E 000°19'0 0.0
2015-Apr-27 11:32N 49°26' E 000°19'0 0.0
2015-Apr-27 10:32N 49°26' E 000°19'0 0.0
2015-Apr-27 09:32N 49°26' E 000°19'0 0.0
2015-Apr-27 08:32N 49°26' E 000°19'0 0.0
2015-Apr-27 07:32N 49°26' E 000°19'0 0.0
2015-Apr-27 06:32N 49°26' E 000°19'0 0.0
2015-Apr-27 05:32N 49°26' E 000°19'0 0.0
2015-Apr-27 04:29N 49°26' E 000°19'0 0.0
2015-Apr-27 03:32N 49°26' E 000°19'0 0.0
2015-Apr-27 02:32N 49°26' E 000°19'0 0.0
2015-Apr-27 01:32N 49°26' E 000°19'0 0.0
2015-Apr-27 00:32N 49°26' E 000°19'0 0.0
2015-Apr-26 23:32N 49°26' E 000°19'0 0.0
2015-Apr-26 22:32N 49°26' E 000°19'0 0.0
2015-Apr-26 21:32N 49°26' E 000°19'0 0.0
2015-Apr-26 20:32N 49°26' E 000°19'0 0.0
2015-Apr-26 19:32N 49°26' E 000°19'0 0.0
2015-Apr-26 18:29N 49°26' E 000°19'4 3.7
2015-Apr-26 17:32N 49°26' E 000°14'0 0.0
2015-Apr-26 16:32N 49°26' E 000°14'0 0.0
2015-Apr-26 15:32N 49°26' E 000°14'0 0.0
2015-Apr-26 14:32N 49°26' E 000°14'0 0.0
2015-Apr-26 13:32N 49°26' E 000°14'0 0.0
2015-Apr-26 12:32N 49°26' E 000°14'0 0.1
2015-Apr-26 11:32N 49°26' E 000°14'0 0.0
2015-Apr-26 10:32N 49°26' E 000°14'0 0.0
2015-Apr-26 09:32N 49°26' E 000°14'0 0.0
2015-Apr-26 08:32N 49°26' E 000°14'0 0.0
2015-Apr-26 07:32N 49°26' E 000°14'0 0.0
2015-Apr-26 06:33N 49°26' E 000°14'7 7.5
2015-Apr-26 05:33N 49°27' E 000°02'4 3.6
2015-Apr-26 04:33N 49°24' E 000°00'0 0.0
2015-Apr-26 03:33N 49°24' E 000°00'0 0.0
2015-Apr-26 02:33N 49°24' E 000°00'0 0.0
2015-Apr-26 01:33N 49°24' E 000°00'0 0.0
2015-Apr-26 00:33N 49°24' E 000°00'0 0.0
2015-Apr-25 23:33N 49°24' E 000°00'0 0.0
2015-Apr-25 22:33N 49°24' E 000°00'0 0.0
2015-Apr-25 21:33N 49°24' E 000°00'0 0.0
2015-Apr-25 20:33N 49°24' E 000°00'0 0.0
2015-Apr-25 19:33N 49°24' E 000°00'6 5.9
2015-Apr-25 18:33N 49°29' E 000°02'4 3.7
2015-Apr-25 17:33N 49°29' E 000°07'0 0.0
2015-Apr-25 16:33N 49°29' E 000°07'0 0.0
2015-Apr-25 15:33N 49°29' E 000°07'0 0.0
2015-Apr-25 14:33N 49°29' E 000°07'0 0.0
2015-Apr-25 13:33N 49°29' E 000°07'1 0.6
2015-Apr-25 12:33N 49°29' E 000°07'5 5.3
2015-Apr-25 11:33N 49°29' W 000°02'0 0.0
2015-Apr-25 10:33N 49°29' W 000°02'0 0.0
2015-Apr-25 09:33N 49°29' W 000°02'0 0.0
2015-Apr-25 08:33N 49°29' W 000°02'0 0.0
2015-Apr-25 07:33N 49°29' W 000°02'0 0.0
2015-Apr-25 06:33N 49°29' W 000°02'0 0.0
2015-Apr-25 05:33N 49°29' W 000°02'0 0.0
2015-Apr-25 04:33N 49°29' W 000°02'0 0.0
2015-Apr-25 03:33N 49°29' W 000°02'0 0.0
2015-Apr-25 02:33N 49°29' W 000°02'4 4.5
2015-Apr-25 01:33N 49°30' W 000°08'1010.0
2015-Apr-25 00:33N 49°33' W 000°23'84 2.5
2015-Apr-23 14:22N 48°39' W 002°01'0 0.0
2015-Apr-23 13:07N 48°39' W 002°01'0 0.0
2015-Apr-23 12:31N 48°39' W 002°01'0 0.0
2015-Apr-23 08:10N 48°39' W 002°01'  
2015-Apr-18 09:18N 48°23' W 004°48'4 6.0
2015-Apr-18 08:33N 48°18' W 004°48'9 9.3
2015-Apr-18 07:33N 48°09' W 004°47'  

Dump ship's entire track history